Weather observations for the past three days for
Harrisburg, Harrisburg International Airport
Metric (Imperial)
Date Time (edt) Wind (kph) Vis. (km) Weather Sky Cond. Temperature (ºC) Relative Humidity Wind Chill (°C) Heat Index (°C) Pressure Precipitation (cm)
Air Dwpt 6 hour altimeter (cm) sea level (mb) 1 hr 3 hr 6 hr
Max. Min.
05 17:56 S 15 G 52 16.09 Mostly Cloudy FEW040 BKN200 27.2 7.2 28% 26 75.54 1006.8
05 16:56 SW 19 G 41 16.09 Mostly Cloudy FEW040 BKN200 27.2 7.2 28% 26 75.51 1006.7
05 15:56 SW 28 G 50 16.09 Mostly Cloudy SCT040 BKN200 26.7 7.8 30% 26 75.54 1007.1
05 14:56 SW 22 G 48 16.09 Partly Cloudy SCT050 SCT200 26.7 8.3 31% 26 75.59 1007.6
05 13:56 S 20 G 43 16.09 Mostly Cloudy SCT050 BKN200 26.1 8.3 26.1 17.2 32% 26 75.64 1008.2
05 12:56 SW 22 G 37 16.09 A Few Clouds FEW070 FEW250 25.6 9.4 36% 26 75.67 1008.8
05 11:56 SW 26 G 50 16.09 A Few Clouds FEW065 FEW250 25 10 39% 26 75.72 1009.4
05 10:56 W 20 G 41 16.09 A Few Clouds FEW070 FEW250 23.3 9.4 41% 75.74 1009.6
05 09:56 SW 17 G 33 16.09 A Few Clouds FEW250 21.1 9.4 47% 75.77 1010.1
05 08:56 SW 17 G 30 16.09 A Few Clouds FEW250 18.9 9.4 54% 75.79 1010.5
05 07:56 SW 13 16.09 Partly Cloudy FEW100 FEW180 SCT250 17.2 9.4 18.3 15 60% 75.79 1010.4
05 06:56 W 7 16.09 Partly Cloudy FEW100 SCT250 16.7 8.9 60% 75.77 1010.2
05 05:56 SW 17 16.09 A Few Clouds FEW090 FEW120 16.7 8.9 60% 75.72 1009.5
05 04:56 SW 17 16.09 Partly Cloudy SCT110 17.2 8.3 56% 75.69 1008.9
05 03:56 Vrbl 6 16.09 Partly Cloudy SCT110 17.8 8.9 56% 75.69 1008.9
05 02:56 S 11 16.09 Mostly Cloudy BKN100 18.3 8.3 52% 75.67 1008.7
05 01:56 SW 20 16.09 Partly Cloudy SCT110 18.3 8.9 21.7 17.8 54% 75.69 1009.1
05 00:56 SW 19 G 37 16.09 Mostly Cloudy BKN110 18.9 8.3 50% 75.67 1008.8
04 23:56 S 15 16.09 Partly Cloudy SCT100 18.9 7.8 49% 75.67 1008.7
04 22:56 SE 6 16.09 Partly Cloudy SCT110 19.4 6.1 42% 75.67 1008.7
04 21:56 S 13 16.09 Partly Cloudy SCT090 18.3 7.8 51% 75.67 1008.6
04 20:56 SE 17 16.09 Partly Cloudy SCT090 19.4 7.2 45% 75.62 1008.2
04 19:56 Vrbl 11 16.09 A Few Clouds FEW070 21.7 5.6 22.8 21.1 35% 75.59 1007.8
04 18:56 S 19 G 46 16.09 A Few Clouds FEW070 FEW100 22.8 5.6 33% 75.59 1007.8
04 17:56 S 26 G 39 16.09 A Few Clouds FEW070 22.8 5.6 33% 75.59 1007.9
04 16:56 SW 20 G 43 16.09 A Few Clouds FEW070 22.8 6.1 34% 75.62 1007.9
04 15:56 Vrbl 9 G 26 16.09 Partly Cloudy SCT070 22.2 5 33% 75.67 1008.6
04 14:56 SW 19 G 41 16.09 A Few Clouds FEW070 21.7 5 34% 75.72 1009.5
04 13:56 SW 19 G 28 16.09 A Few Clouds FEW070 21.1 3.9 21.1 11.1 32% 75.79 1010.4
04 12:56 SW 15 G 33 16.09 A Few Clouds FEW075 20 3.9 35% 75.84 1011.2
04 11:56 Vrbl 11 16.09 A Few Clouds FEW075 18.9 3.3 36% 75.92 1012.0
04 10:56 SW 15 G 35 16.09 A Few Clouds FEW080 17.8 2.8 37% 75.95 1012.5
04 09:56 SW 15 16.09 A Few Clouds FEW080 15.6 1.7 39% 76 1013.1
04 08:56 SW 9 16.09 A Few Clouds FEW075 12.8 1.1 45% 76 1013.4
04 07:56 SW 15 16.09 Mostly Cloudy BKN080 11.1 0 11.1 6.1 47% 76.05 1013.8
04 06:56 Calm 16.09 Partly Cloudy SCT085 8.9 0.6 56% 76.05 1013.8
04 05:56 E 7 16.09 A Few Clouds FEW080 7.2 0.6 63% 6 76.05 1013.9
04 04:56 Calm 16.09 Fair CLR 7.8 -0.6 56% 76.05 1014.1
04 03:56 SW 19 16.09 Fair CLR 10 0.6 52% 8 76.07 1014.3
04 02:56 Calm 16.09 Fair CLR 8.3 0 56% 76.07 1014.2
04 01:56 SW 11 16.09 Fair CLR 11.1 0 14.4 11.1 47% 76.07 1014.2
04 00:56 SW 22 16.09 Fair CLR 11.7 1.1 48% 76.07 1014.2
03 23:56 SW 17 16.09 Fair CLR 12.8 0.6 44% 76.05 1014.1
03 22:56 SW 17 16.09 Fair CLR 13.3 0.6 42% 76.02 1013.7
03 21:56 W 19 16.09 Fair CLR 14.4 -0.6 36% 76.02 1013.7
03 20:56 SW 15 16.09 Fair CLR 14.4 -0.6 36% 76 1013.4
03 19:56 W 15 16.09 A Few Clouds FEW050 14.4 -0.6 16.7 13.9 36% 75.97 1012.8
03 18:56 W 24 16.09 A Few Clouds FEW050 15.6 -1.1 32% 75.95 1012.6
03 17:56 NW 22 G 39 16.09 Partly Cloudy SCT050 16.1 -1.1 31% 75.95 1012.6
03 16:56 W 28 G 43 16.09 Partly Cloudy SCT050 16.1 -1.1 31% 75.95 1012.6
03 15:56 NW 28 G 44 16.09 Mostly Cloudy BKN050 16.1 -1.7 30% 75.97 1013.0
03 14:56 NW 19 16.09 Mostly Cloudy BKN050 14.4 -3.9 28% 76.02 1013.6
03 13:56 W 22 G 41 16.09 Mostly Cloudy BKN075 14.4 -2.2 14.4 6.7 32% 76.05 1014.1
03 12:56 NW 19 G 35 16.09 Mostly Cloudy BKN070 11.7 -3.3 35% 76.1 1014.9
03 11:56 NW 30 G 41 16.09 Mostly Cloudy BKN070 12.2 -3.9 33% 76.15 1015.4
03 10:56 NW 30 G 41 16.09 A Few Clouds FEW068 11.1 -4.4 34% 76.17 1015.8
03 09:56 NW 24 G 44 16.09 A Few Clouds FEW060 9.4 -4.4 38% 7 76.17 1015.9
03 08:56 NW 20 16.09 A Few Clouds FEW070 8.3 -2.8 46% 5 76.2 1016.1
03 07:56 NW 20 16.09 A Few Clouds FEW060 6.7 -2.8 7.8 5 51% 3 76.17 1015.9
03 06:56 NW 22 16.09 A Few Clouds FEW060 5.6 -2.8 55% 2 76.12 1015.0
03 05:56 NW 22 16.09 A Few Clouds FEW070 5.6 -2.8 55% 2 76.05 1014.1
03 04:56 NW 30 16.09 Partly Cloudy SCT080 6.7 -1.7 55% 3 76 1013.5
03 03:56 NW 17 16.09 Overcast OVC070 7.8 -3.3 46% 5 75.97 1013.0
03 02:56 NW 22 16.09 Overcast FEW065 OVC070 7.2 -0.6 58% 4 75.95 1012.7
03 01:56 W 19 16.09 Partly Cloudy SCT085 6.7 0.6 11.1 6.7 65% 4 75.97 1012.8
03 00:56 NW 17 16.09 Mostly Cloudy BKN085 7.2 0.6 63% 5 75.97 1013.0
02 23:56 NW 26 G 35 16.09 Overcast OVC090 8.3 1.7 63% 5 76.02 1013.7
02 22:56 NW 24 16.09 Overcast OVC090 8.9 1.1 58% 6 76.02 1013.8
02 21:56 NW 22 16.09 Overcast OVC090 9.4 0.6 55% 7 76.05 1013.9
02 20:56 NW 26 16.09 Overcast OVC090 9.4 0.6 55% 6 76.02 1013.6
02 19:56 NW 26 16.09 Overcast SCT050 OVC090 11.1 -0.6 15 11.1 45% 75.97 1012.9
02 18:56 NW 17 16.09 Overcast BKN065 OVC090 12.2 -1.1 40% 75.9 1012.2
Date Time (edt) Wind (kph) Vis. (km) Weather Sky Cond. Air Dwpt Max. Min. Relative Humidity Wind Chill (°C) Heat Index (°C) altimeter (cm) sea level (mb) 1 hr 3 hr 6 hr
6 hour
Temperature (ºC) Pressure Precipitation (cm)